sensor_id;sensor_type;location;lat;lon;timestamp;pressure;altitude;pressure_sealevel;temperature;humidity
36192;BME280;22233;42.708;23.360;2023-02-28T00:00:21;95883.56;;;8.94;76.68
36192;BME280;22233;42.708;23.360;2023-02-28T00:02:47;95893.31;;;8.95;76.49
36192;BME280;22233;42.708;23.360;2023-02-28T00:05:16;95871.94;;;8.93;76.48
36192;BME280;22233;42.708;23.360;2023-02-28T00:07:42;95894.09;;;9.19;75.74
36192;BME280;22233;42.708;23.360;2023-02-28T00:10:10;95886.25;;;9.18;75.73
36192;BME280;22233;42.708;23.360;2023-02-28T00:12:36;95902.63;;;9.08;76.69
36192;BME280;22233;42.708;23.360;2023-02-28T00:15:05;95887.06;;;8.94;76.15
36192;BME280;22233;42.708;23.360;2023-02-28T00:17:31;95874.69;;;8.88;76.39
36192;BME280;22233;42.708;23.360;2023-02-28T00:19:57;95901.00;;;8.88;75.90
36192;BME280;22233;42.708;23.360;2023-02-28T00:22:27;95914.88;;;8.81;77.39
36192;BME280;22233;42.708;23.360;2023-02-28T00:24:52;95890.31;;;8.72;76.80
36192;BME280;22233;42.708;23.360;2023-02-28T00:27:18;95904.38;;;8.74;76.55
36192;BME280;22233;42.708;23.360;2023-02-28T00:29:43;95904.78;;;8.87;76.08
36192;BME280;22233;42.708;23.360;2023-02-28T00:32:09;95911.34;;;9.05;75.55
36192;BME280;22233;42.708;23.360;2023-02-28T00:34:34;95922.47;;;8.55;77.61
36192;BME280;22233;42.708;23.360;2023-02-28T00:37:07;95907.16;;;8.69;76.92
36192;BME280;22233;42.708;23.360;2023-02-28T00:39:35;95917.75;;;8.90;76.11
36192;BME280;22233;42.708;23.360;2023-02-28T00:42:01;95912.91;;;8.87;76.06
36192;BME280;22233;42.708;23.360;2023-02-28T00:44:27;95898.94;;;8.79;76.42
36192;BME280;22233;42.708;23.360;2023-02-28T00:46:53;95922.19;;;8.80;75.75
36192;BME280;22233;42.708;23.360;2023-02-28T00:49:19;95904.34;;;8.79;75.92
36192;BME280;22233;42.708;23.360;2023-02-28T00:51:45;95888.66;;;8.76;76.29
36192;BME280;22233;42.708;23.360;2023-02-28T00:54:11;95886.47;;;8.54;76.29
36192;BME280;22233;42.708;23.360;2023-02-28T00:56:37;95884.47;;;8.41;76.04
36192;BME280;22233;42.708;23.360;2023-02-28T00:59:02;95888.66;;;8.52;76.02
36192;BME280;22233;42.708;23.360;2023-02-28T01:01:27;95895.19;;;8.51;76.29
36192;BME280;22233;42.708;23.360;2023-02-28T01:03:53;95872.63;;;7.39;79.44
36192;BME280;22233;42.708;23.360;2023-02-28T01:06:18;95881.19;;;7.46;79.73
36192;BME280;22233;42.708;23.360;2023-02-28T01:08:44;95898.88;;;7.73;78.96
36192;BME280;22233;42.708;23.360;2023-02-28T01:11:11;95891.56;;;8.03;77.74
36192;BME280;22233;42.708;23.360;2023-02-28T01:13:37;95894.38;;;8.22;76.42
36192;BME280;22233;42.708;23.360;2023-02-28T01:16:03;95889.44;;;7.99;76.86
36192;BME280;22233;42.708;23.360;2023-02-28T01:18:28;95876.78;;;7.95;77.31
36192;BME280;22233;42.708;23.360;2023-02-28T01:20:54;95883.81;;;8.20;76.53
36192;BME280;22233;42.708;23.360;2023-02-28T01:23:21;95894.47;;;8.11;76.54
36192;BME280;22233;42.708;23.360;2023-02-28T01:25:48;95884.06;;;8.24;76.71
36192;BME280;22233;42.708;23.360;2023-02-28T01:28:14;95891.28;;;8.33;75.56
36192;BME280;22233;42.708;23.360;2023-02-28T01:30:39;95884.34;;;8.22;75.97
36192;BME280;22233;42.708;23.360;2023-02-28T01:33:04;95879.06;;;8.07;75.88
36192;BME280;22233;42.708;23.360;2023-02-28T01:35:34;95868.19;;;7.53;77.21
36192;BME280;22233;42.708;23.360;2023-02-28T01:38:00;95880.25;;;7.66;77.90
36192;BME280;22233;42.708;23.360;2023-02-28T01:40:25;95872.97;;;7.67;77.19
36192;BME280;22233;42.708;23.360;2023-02-28T01:42:51;95869.91;;;7.39;78.10
36192;BME280;22233;42.708;23.360;2023-02-28T01:45:26;95886.47;;;7.27;79.12
36192;BME280;22233;42.708;23.360;2023-02-28T01:47:55;95881.03;;;7.32;79.03
36192;BME280;22233;42.708;23.360;2023-02-28T01:50:25;95893.13;;;7.40;79.33
36192;BME280;22233;42.708;23.360;2023-02-28T01:52:54;95899.84;;;7.48;78.53
36192;BME280;22233;42.708;23.360;2023-02-28T01:55:22;95896.38;;;7.42;79.42
36192;BME280;22233;42.708;23.360;2023-02-28T01:57:52;95889.81;;;7.53;78.95
36192;BME280;22233;42.708;23.360;2023-02-28T02:00:23;95897.28;;;7.67;78.08
36192;BME280;22233;42.708;23.360;2023-02-28T02:02:52;95885.06;;;7.35;78.38
36192;BME280;22233;42.708;23.360;2023-02-28T02:05:22;95879.66;;;7.35;79.47
36192;BME280;22233;42.708;23.360;2023-02-28T02:07:51;95894.97;;;7.50;79.24
36192;BME280;22233;42.708;23.360;2023-02-28T02:10:30;95878.66;;;7.60;77.78
36192;BME280;22233;42.708;23.360;2023-02-28T02:13:24;95886.34;;;7.48;79.00
36192;BME280;22233;42.708;23.360;2023-02-28T02:19:51;95884.06;;;7.65;78.63
36192;BME280;22233;42.708;23.360;2023-02-28T02:36:19;95897.88;;;7.58;78.79
36192;BME280;22233;42.708;23.360;2023-02-28T02:43:52;95887.53;;;7.71;77.20
36192;BME280;22233;42.708;23.360;2023-02-28T02:48:48;95903.81;;;7.60;77.78
36192;BME280;22233;42.708;23.360;2023-02-28T02:51:17;95910.72;;;7.37;78.69
36192;BME280;22233;42.708;23.360;2023-02-28T02:53:58;95908.16;;;7.56;78.41
36192;BME280;22233;42.708;23.360;2023-02-28T02:56:28;95888.38;;;7.27;78.87
36192;BME280;22233;42.708;23.360;2023-02-28T02:58:58;95895.28;;;7.43;78.07
36192;BME280;22233;42.708;23.360;2023-02-28T03:01:25;95899.72;;;7.24;77.97
36192;BME280;22233;42.708;23.360;2023-02-28T03:04:00;95893.28;;;7.19;78.53
36192;BME280;22233;42.708;23.360;2023-02-28T03:06:27;95911.50;;;7.43;78.09
36192;BME280;22233;42.708;23.360;2023-02-28T03:08:52;95907.09;;;7.57;76.95
36192;BME280;22233;42.708;23.360;2023-02-28T03:11:18;95914.03;;;7.69;77.52
36192;BME280;22233;42.708;23.360;2023-02-28T03:28:08;95942.59;;;7.80;77.88
36192;BME280;22233;42.708;23.360;2023-02-28T03:30:57;95955.44;;;7.98;77.99
36192;BME280;22233;42.708;23.360;2023-02-28T03:33:38;95936.66;;;7.83;77.37
36192;BME280;22233;42.708;23.360;2023-02-28T03:36:09;95938.66;;;7.67;78.37
36192;BME280;22233;42.708;23.360;2023-02-28T03:38:38;95962.94;;;8.07;77.40
36192;BME280;22233;42.708;23.360;2023-02-28T03:41:16;95954.72;;;7.88;77.57
36192;BME280;22233;42.708;23.360;2023-02-28T03:44:01;95939.03;;;7.85;77.79
36192;BME280;22233;42.708;23.360;2023-02-28T03:46:32;95961.00;;;7.83;78.21
36192;BME280;22233;42.708;23.360;2023-02-28T03:49:30;95953.06;;;7.92;78.26
36192;BME280;22233;42.708;23.360;2023-02-28T03:52:00;95959.28;;;7.92;78.16
36192;BME280;22233;42.708;23.360;2023-02-28T03:54:32;95964.13;;;7.95;77.93
36192;BME280;22233;42.708;23.360;2023-02-28T03:57:13;95955.44;;;7.98;77.49
36192;BME280;22233;42.708;23.360;2023-02-28T03:59:44;95966.84;;;7.95;77.63
36192;BME280;22233;42.708;23.360;2023-02-28T04:02:12;95960.84;;;7.98;77.56
36192;BME280;22233;42.708;23.360;2023-02-28T04:04:37;95964.59;;;8.08;76.88
36192;BME280;22233;42.708;23.360;2023-02-28T04:07:06;95947.84;;;8.00;76.60
36192;BME280;22233;42.708;23.360;2023-02-28T04:09:32;95957.31;;;8.03;75.82
36192;BME280;22233;42.708;23.360;2023-02-28T04:11:57;95953.78;;;8.03;76.43
36192;BME280;22233;42.708;23.360;2023-02-28T04:14:23;95966.16;;;8.14;75.74
36192;BME280;22233;42.708;23.360;2023-02-28T04:16:49;95961.53;;;8.14;74.37
36192;BME280;22233;42.708;23.360;2023-02-28T04:19:16;95953.03;;;7.97;75.49
36192;BME280;22233;42.708;23.360;2023-02-28T04:21:44;95951.53;;;7.80;75.62
36192;BME280;22233;42.708;23.360;2023-02-28T04:24:12;95949.31;;;7.88;75.01
36192;BME280;22233;42.708;23.360;2023-02-28T04:26:43;95954.44;;;7.89;75.86
36192;BME280;22233;42.708;23.360;2023-02-28T04:29:09;95961.19;;;7.92;75.46
36192;BME280;22233;42.708;23.360;2023-02-28T04:31:35;95970.91;;;7.53;76.56
36192;BME280;22233;42.708;23.360;2023-02-28T04:34:01;95951.13;;;7.63;76.06
36192;BME280;22233;42.708;23.360;2023-02-28T04:36:26;95962.56;;;7.89;75.46
36192;BME280;22233;42.708;23.360;2023-02-28T04:38:52;95946.84;;;7.52;76.32
36192;BME280;22233;42.708;23.360;2023-02-28T04:41:18;95958.25;;;7.49;76.93
36192;BME280;22233;42.708;23.360;2023-02-28T04:43:43;95959.53;;;7.56;76.96
36192;BME280;22233;42.708;23.360;2023-02-28T04:46:09;95960.25;;;7.28;76.92
36192;BME280;22233;42.708;23.360;2023-02-28T04:48:37;95959.13;;;7.34;77.26
36192;BME280;22233;42.708;23.360;2023-02-28T04:51:09;95984.75;;;7.42;77.21
36192;BME280;22233;42.708;23.360;2023-02-28T04:53:36;95984.50;;;7.38;76.87
36192;BME280;22233;42.708;23.360;2023-02-28T04:56:03;95993.34;;;7.59;76.54
36192;BME280;22233;42.708;23.360;2023-02-28T04:58:28;95983.91;;;7.51;76.58
36192;BME280;22233;42.708;23.360;2023-02-28T05:01:01;95983.59;;;7.58;77.02
36192;BME280;22233;42.708;23.360;2023-02-28T05:03:27;95981.13;;;7.67;77.02
36192;BME280;22233;42.708;23.360;2023-02-28T05:05:53;95972.56;;;7.44;77.67
36192;BME280;22233;42.708;23.360;2023-02-28T05:08:18;95972.34;;;7.40;77.59
36192;BME280;22233;42.708;23.360;2023-02-28T05:10:43;95965.88;;;7.36;78.13
36192;BME280;22233;42.708;23.360;2023-02-28T05:13:12;95990.16;;;7.42;78.51
36192;BME280;22233;42.708;23.360;2023-02-28T05:15:37;95987.63;;;7.60;78.37
36192;BME280;22233;42.708;23.360;2023-02-28T05:18:03;95991.69;;;7.58;78.26
36192;BME280;22233;42.708;23.360;2023-02-28T05:20:28;95987.16;;;7.48;78.42
36192;BME280;22233;42.708;23.360;2023-02-28T05:22:53;95982.84;;;7.47;78.56
36192;BME280;22233;42.708;23.360;2023-02-28T05:25:20;96004.66;;;7.61;78.26
36192;BME280;22233;42.708;23.360;2023-02-28T05:27:47;96008.22;;;7.51;78.71
36192;BME280;22233;42.708;23.360;2023-02-28T05:30:13;95998.78;;;7.49;78.91
36192;BME280;22233;42.708;23.360;2023-02-28T05:32:39;96003.97;;;7.40;79.31
36192;BME280;22233;42.708;23.360;2023-02-28T05:35:12;96002.31;;;7.49;79.16
36192;BME280;22233;42.708;23.360;2023-02-28T05:37:38;95997.63;;;7.60;78.36
36192;BME280;22233;42.708;23.360;2023-02-28T05:40:05;96003.75;;;7.76;78.38
36192;BME280;22233;42.708;23.360;2023-02-28T05:42:32;96016.47;;;7.75;78.23
36192;BME280;22233;42.708;23.360;2023-02-28T05:44:58;96020.84;;;7.66;79.02
36192;BME280;22233;42.708;23.360;2023-02-28T05:47:24;96020.38;;;7.59;79.10
36192;BME280;22233;42.708;23.360;2023-02-28T05:49:49;96021.69;;;7.62;78.43
36192;BME280;22233;42.708;23.360;2023-02-28T05:52:15;96008.44;;;7.60;79.38
36192;BME280;22233;42.708;23.360;2023-02-28T05:54:40;96023.84;;;7.65;79.43
36192;BME280;22233;42.708;23.360;2023-02-28T05:57:07;96011.34;;;7.74;78.93
36192;BME280;22233;42.708;23.360;2023-02-28T05:59:32;96037.78;;;7.87;78.52
36192;BME280;22233;42.708;23.360;2023-02-28T06:01:58;96032.03;;;7.99;77.64
36192;BME280;22233;42.708;23.360;2023-02-28T06:04:23;96026.19;;;7.76;78.03
36192;BME280;22233;42.708;23.360;2023-02-28T06:06:49;96025.13;;;7.77;78.71
36192;BME280;22233;42.708;23.360;2023-02-28T06:09:15;96031.91;;;7.75;78.49
36192;BME280;22233;42.708;23.360;2023-02-28T06:11:41;96015.38;;;7.76;78.47
36192;BME280;22233;42.708;23.360;2023-02-28T06:14:07;96024.50;;;7.91;78.03
36192;BME280;22233;42.708;23.360;2023-02-28T06:16:34;96038.84;;;7.91;78.56
36192;BME280;22233;42.708;23.360;2023-02-28T06:19:01;96034.50;;;7.90;77.60
36192;BME280;22233;42.708;23.360;2023-02-28T06:21:27;96028.31;;;7.85;77.84
36192;BME280;22233;42.708;23.360;2023-02-28T06:23:54;96011.00;;;7.86;77.55
36192;BME280;22233;42.708;23.360;2023-02-28T06:26:19;96034.47;;;7.95;77.31
36192;BME280;22233;42.708;23.360;2023-02-28T06:28:45;96021.75;;;7.96;77.42
36192;BME280;22233;42.708;23.360;2023-02-28T06:31:14;96023.94;;;7.94;77.09
36192;BME280;22233;42.708;23.360;2023-02-28T06:33:40;96035.72;;;8.08;76.53
36192;BME280;22233;42.708;23.360;2023-02-28T06:36:07;96039.63;;;7.92;76.97
36192;BME280;22233;42.708;23.360;2023-02-28T06:38:33;96029.44;;;7.78;77.61
36192;BME280;22233;42.708;23.360;2023-02-28T06:41:00;96042.03;;;7.98;76.99
36192;BME280;22233;42.708;23.360;2023-02-28T06:43:28;96050.38;;;8.07;76.94
36192;BME280;22233;42.708;23.360;2023-02-28T06:45:56;96048.72;;;8.11;75.92
36192;BME280;22233;42.708;23.360;2023-02-28T06:48:22;96049.00;;;8.10;76.29
36192;BME280;22233;42.708;23.360;2023-02-28T06:50:48;96046.25;;;8.15;75.92
36192;BME280;22233;42.708;23.360;2023-02-28T06:53:13;96033.31;;;8.07;75.54
36192;BME280;22233;42.708;23.360;2023-02-28T06:55:39;96032.91;;;7.84;76.28
36192;BME280;22233;42.708;23.360;2023-02-28T06:58:05;96030.94;;;8.00;76.38
36192;BME280;22233;42.708;23.360;2023-02-28T07:00:41;96047.44;;;7.98;76.77
36192;BME280;22233;42.708;23.360;2023-02-28T07:03:06;96045.16;;;8.16;76.20
36192;BME280;22233;42.708;23.360;2023-02-28T07:05:31;96034.34;;;8.11;76.36
36192;BME280;22233;42.708;23.360;2023-02-28T07:07:59;96051.88;;;8.24;76.02
36192;BME280;22233;42.708;23.360;2023-02-28T07:10:24;96046.56;;;8.08;76.84
36192;BME280;22233;42.708;23.360;2023-02-28T07:12:50;96029.44;;;8.18;76.25
36192;BME280;22233;42.708;23.360;2023-02-28T07:15:16;96039.13;;;8.24;76.59
36192;BME280;22233;42.708;23.360;2023-02-28T07:17:41;96049.41;;;8.27;76.42
36192;BME280;22233;42.708;23.360;2023-02-28T07:20:07;96041.69;;;8.50;75.45
36192;BME280;22233;42.708;23.360;2023-02-28T07:22:33;96031.41;;;8.47;75.49
36192;BME280;22233;42.708;23.360;2023-02-28T07:24:58;96029.13;;;8.59;75.26
36192;BME280;22233;42.708;23.360;2023-02-28T07:27:24;96033.84;;;8.48;74.92
36192;BME280;22233;42.708;23.360;2023-02-28T07:29:51;96046.41;;;8.63;74.84
36192;BME280;22233;42.708;23.360;2023-02-28T07:32:17;96051.41;;;8.51;75.81
36192;BME280;22233;42.708;23.360;2023-02-28T07:34:43;96039.59;;;8.42;76.83
36192;BME280;22233;42.708;23.360;2023-02-28T07:37:09;96047.19;;;8.69;75.92
36192;BME280;22233;42.708;23.360;2023-02-28T07:39:34;96054.44;;;8.44;75.94
36192;BME280;22233;42.708;23.360;2023-02-28T07:41:59;96048.47;;;8.47;77.16
36192;BME280;22233;42.708;23.360;2023-02-28T07:44:26;96041.78;;;8.69;75.82
36192;BME280;22233;42.708;23.360;2023-02-28T07:46:51;96038.00;;;8.65;75.96
36192;BME280;22233;42.708;23.360;2023-02-28T07:49:18;96037.34;;;8.78;75.35
36192;BME280;22233;42.708;23.360;2023-02-28T07:51:43;96042.44;;;8.85;75.71
36192;BME280;22233;42.708;23.360;2023-02-28T07:54:08;96049.66;;;8.94;75.46
36192;BME280;22233;42.708;23.360;2023-02-28T07:56:34;96034.38;;;8.79;75.37
36192;BME280;22233;42.708;23.360;2023-02-28T07:58:59;96038.16;;;9.08;75.39
36192;BME280;22233;42.708;23.360;2023-02-28T08:01:24;96044.66;;;9.07;75.18
36192;BME280;22233;42.708;23.360;2023-02-28T08:03:50;96017.19;;;8.89;75.06
36192;BME280;22233;42.708;23.360;2023-02-28T08:06:22;96029.31;;;9.21;75.11
36192;BME280;22233;42.708;23.360;2023-02-28T08:08:48;96034.56;;;9.36;74.83
36192;BME280;22233;42.708;23.360;2023-02-28T08:11:14;96012.72;;;9.28;74.34
36192;BME280;22233;42.708;23.360;2023-02-28T08:13:41;96042.66;;;9.60;74.60
36192;BME280;22233;42.708;23.360;2023-02-28T08:16:07;96045.38;;;9.79;74.50
36192;BME280;22233;42.708;23.360;2023-02-28T08:18:33;96052.59;;;9.70;74.50
36192;BME280;22233;42.708;23.360;2023-02-28T08:20:58;96047.06;;;9.75;74.50
36192;BME280;22233;42.708;23.360;2023-02-28T08:23:24;96031.38;;;9.91;74.62
36192;BME280;22233;42.708;23.360;2023-02-28T08:25:54;96054.81;;;10.06;73.17
36192;BME280;22233;42.708;23.360;2023-02-28T08:28:20;96053.41;;;10.09;73.84
36192;BME280;22233;42.708;23.360;2023-02-28T08:30:45;96045.25;;;10.47;72.48
36192;BME280;22233;42.708;23.360;2023-02-28T08:33:10;96046.50;;;10.35;73.73
36192;BME280;22233;42.708;23.360;2023-02-28T08:35:36;96018.47;;;10.40;73.79
36192;BME280;22233;42.708;23.360;2023-02-28T08:38:02;96036.16;;;10.70;73.77
36192;BME280;22233;42.708;23.360;2023-02-28T08:40:27;96051.69;;;10.84;73.74
36192;BME280;22233;42.708;23.360;2023-02-28T08:42:53;96043.66;;;10.92;74.61
36192;BME280;22233;42.708;23.360;2023-02-28T08:45:18;96033.88;;;10.77;74.35
36192;BME280;22233;42.708;23.360;2023-02-28T08:47:43;96038.94;;;10.98;74.78
36192;BME280;22233;42.708;23.360;2023-02-28T08:50:09;96034.22;;;11.04;73.80
36192;BME280;22233;42.708;23.360;2023-02-28T08:52:35;96047.84;;;11.31;74.47
36192;BME280;22233;42.708;23.360;2023-02-28T08:55:00;96025.06;;;11.27;74.43
36192;BME280;22233;42.708;23.360;2023-02-28T08:57:25;96040.16;;;11.19;75.88
36192;BME280;22233;42.708;23.360;2023-02-28T08:59:51;96041.78;;;11.48;74.83
36192;BME280;22233;42.708;23.360;2023-02-28T09:02:17;96031.31;;;11.55;73.45
36192;BME280;22233;42.708;23.360;2023-02-28T09:04:43;96040.06;;;11.52;73.44
36192;BME280;22233;42.708;23.360;2023-02-28T09:07:10;96046.28;;;11.67;72.85
36192;BME280;22233;42.708;23.360;2023-02-28T09:09:36;96037.41;;;11.75;73.07
36192;BME280;22233;42.708;23.360;2023-02-28T09:12:02;96044.78;;;11.60;73.68
36192;BME280;22233;42.708;23.360;2023-02-28T09:14:27;96040.97;;;11.75;72.11
36192;BME280;22233;42.708;23.360;2023-02-28T09:16:53;96042.84;;;11.75;72.37
36192;BME280;22233;42.708;23.360;2023-02-28T09:19:19;96037.63;;;11.92;71.22
36192;BME280;22233;42.708;23.360;2023-02-28T09:21:44;96031.09;;;11.66;72.72
36192;BME280;22233;42.708;23.360;2023-02-28T09:24:09;96037.84;;;11.54;72.56
36192;BME280;22233;42.708;23.360;2023-02-28T09:26:37;96010.63;;;11.68;71.71
36192;BME280;22233;42.708;23.360;2023-02-28T09:29:02;96030.16;;;11.98;71.45
36192;BME280;22233;42.708;23.360;2023-02-28T09:31:29;96020.78;;;11.90;70.71
36192;BME280;22233;42.708;23.360;2023-02-28T09:33:56;96029.97;;;11.67;71.73
36192;BME280;22233;42.708;23.360;2023-02-28T09:36:23;96021.91;;;11.89;71.11
36192;BME280;22233;42.708;23.360;2023-02-28T09:38:49;96020.06;;;11.98;71.68
36192;BME280;22233;42.708;23.360;2023-02-28T09:41:23;96033.47;;;11.95;71.08
36192;BME280;22233;42.708;23.360;2023-02-28T09:43:53;96020.25;;;11.88;69.99
36192;BME280;22233;42.708;23.360;2023-02-28T09:46:28;96034.03;;;12.19;70.08
36192;BME280;22233;42.708;23.360;2023-02-28T09:48:56;96026.84;;;12.24;69.85
36192;BME280;22233;42.708;23.360;2023-02-28T09:54:30;96023.94;;;12.43;69.89
36192;BME280;22233;42.708;23.360;2023-02-28T09:57:00;96025.72;;;12.47;69.17
36192;BME280;22233;42.708;23.360;2023-02-28T10:05:19;96017.59;;;12.78;68.43
36192;BME280;22233;42.708;23.360;2023-02-28T10:08:14;96014.34;;;12.68;68.22
36192;BME280;22233;42.708;23.360;2023-02-28T10:13:36;96005.91;;;12.55;67.88
36192;BME280;22233;42.708;23.360;2023-02-28T10:16:15;96008.94;;;12.76;67.70
36192;BME280;22233;42.708;23.360;2023-02-28T10:19:09;96007.19;;;12.81;66.99
36192;BME280;22233;42.708;23.360;2023-02-28T10:21:42;96005.47;;;12.17;68.78
36192;BME280;22233;42.708;23.360;2023-02-28T10:24:47;96002.38;;;12.55;67.89
36192;BME280;22233;42.708;23.360;2023-02-28T10:29:46;95996.56;;;12.48;68.62
36192;BME280;22233;42.708;23.360;2023-02-28T10:32:32;95993.44;;;12.63;67.94
36192;BME280;22233;42.708;23.360;2023-02-28T10:35:17;95989.38;;;12.83;66.82
36192;BME280;22233;42.708;23.360;2023-02-28T10:37:46;95978.94;;;12.76;66.89
36192;BME280;22233;42.708;23.360;2023-02-28T10:45:20;95972.84;;;13.19;65.32
36192;BME280;22233;42.708;23.360;2023-02-28T10:47:58;95961.69;;;13.30;65.67
36192;BME280;22233;42.708;23.360;2023-02-28T10:50:36;95975.84;;;13.49;65.58
36192;BME280;22233;42.708;23.360;2023-02-28T10:53:38;95974.97;;;13.23;65.35
36192;BME280;22233;42.708;23.360;2023-02-28T11:01:19;95940.38;;;13.58;64.48
36192;BME280;22233;42.708;23.360;2023-02-28T11:03:46;95951.34;;;13.84;64.88
36192;BME280;22233;42.708;23.360;2023-02-28T11:08:58;95938.44;;;13.41;64.41
36192;BME280;22233;42.708;23.360;2023-02-28T11:11:28;95933.50;;;13.61;63.97
36192;BME280;22233;42.708;23.360;2023-02-28T11:13:56;95946.19;;;13.74;64.52
36192;BME280;22233;42.708;23.360;2023-02-28T11:16:35;95924.50;;;13.86;63.69
36192;BME280;22233;42.708;23.360;2023-02-28T11:19:03;95925.16;;;13.83;63.21
36192;BME280;22233;42.708;23.360;2023-02-28T11:21:36;95927.72;;;13.88;63.04
36192;BME280;22233;42.708;23.360;2023-02-28T11:24:27;95935.13;;;13.88;62.50
36192;BME280;22233;42.708;23.360;2023-02-28T11:26:54;95929.81;;;13.56;63.06
36192;BME280;22233;42.708;23.360;2023-02-28T11:29:22;95926.25;;;13.47;63.53
36192;BME280;22233;42.708;23.360;2023-02-28T11:32:20;95935.75;;;13.58;63.38
36192;BME280;22233;42.708;23.360;2023-02-28T11:34:59;95920.66;;;13.87;61.75
36192;BME280;22233;42.708;23.360;2023-02-28T11:37:27;95928.50;;;14.06;62.11
36192;BME280;22233;42.708;23.360;2023-02-28T11:39:53;95916.66;;;13.85;62.61
36192;BME280;22233;42.708;23.360;2023-02-28T11:45:14;95910.53;;;13.79;62.07
36192;BME280;22233;42.708;23.360;2023-02-28T11:53:17;95915.84;;;13.93;62.63
36192;BME280;22233;42.708;23.360;2023-02-28T11:55:50;95900.25;;;13.76;62.51
36192;BME280;22233;42.708;23.360;2023-02-28T11:58:28;95921.28;;;14.19;62.37
36192;BME280;22233;42.708;23.360;2023-02-28T12:12:06;95919.88;;;13.87;61.34
36192;BME280;22233;42.708;23.360;2023-02-28T12:28:38;95901.19;;;14.06;61.17
36192;BME280;22233;42.708;23.360;2023-02-28T12:31:23;95892.97;;;14.32;60.46
36192;BME280;22233;42.708;23.360;2023-02-28T12:33:55;95910.03;;;14.12;59.97
36192;BME280;22233;42.708;23.360;2023-02-28T12:36:22;95908.25;;;14.16;59.96
36192;BME280;22233;42.708;23.360;2023-02-28T12:38:54;95891.41;;;13.88;60.88
36192;BME280;22233;42.708;23.360;2023-02-28T12:44:30;95898.66;;;13.92;60.64
36192;BME280;22233;42.708;23.360;2023-02-28T12:47:01;95903.00;;;13.85;61.25
36192;BME280;22233;42.708;23.360;2023-02-28T12:49:49;95889.16;;;14.07;61.19
36192;BME280;22233;42.708;23.360;2023-02-28T12:52:22;95878.06;;;14.21;60.53
36192;BME280;22233;42.708;23.360;2023-02-28T12:54:54;95898.44;;;14.32;60.14
36192;BME280;22233;42.708;23.360;2023-02-28T13:00:25;95899.09;;;14.12;60.72
36192;BME280;22233;42.708;23.360;2023-02-28T13:06:03;95899.56;;;14.31;59.99
36192;BME280;22233;42.708;23.360;2023-02-28T13:11:30;95879.94;;;14.38;59.75
36192;BME280;22233;42.708;23.360;2023-02-28T13:14:03;95889.47;;;14.23;60.13
36192;BME280;22233;42.708;23.360;2023-02-28T13:16:58;95893.66;;;14.12;60.21
36192;BME280;22233;42.708;23.360;2023-02-28T13:19:27;95880.66;;;13.65;60.85
36192;BME280;22233;42.708;23.360;2023-02-28T13:21:55;95889.00;;;13.51;61.28
36192;BME280;22233;42.708;23.360;2023-02-28T13:24:38;95888.38;;;13.54;62.02
36192;BME280;22233;42.708;23.360;2023-02-28T13:29:39;95881.47;;;13.83;60.93
36192;BME280;22233;42.708;23.360;2023-02-28T13:34:38;95877.63;;;13.75;60.52
36192;BME280;22233;42.708;23.360;2023-02-28T13:39:58;95872.63;;;13.51;61.28
36192;BME280;22233;42.708;23.360;2023-02-28T13:47:36;95866.22;;;13.65;61.30
36192;BME280;22233;42.708;23.360;2023-02-28T13:50:26;95881.97;;;13.50;61.50
36192;BME280;22233;42.708;23.360;2023-02-28T13:56:06;95862.66;;;13.29;62.51
36192;BME280;22233;42.708;23.360;2023-02-28T13:58:53;95851.72;;;13.21;62.38
36192;BME280;22233;42.708;23.360;2023-02-28T14:11:45;95864.75;;;12.75;63.48
36192;BME280;22233;42.708;23.360;2023-02-28T14:16:59;95872.63;;;12.76;63.91
36192;BME280;22233;42.708;23.360;2023-02-28T14:19:29;95877.78;;;12.47;64.11
36192;BME280;22233;42.708;23.360;2023-02-28T14:35:20;95877.19;;;12.27;65.74
36192;BME280;22233;42.708;23.360;2023-02-28T14:37:47;95880.28;;;12.34;65.19
36192;BME280;22233;42.708;23.360;2023-02-28T14:40:22;95884.25;;;12.28;66.16
36192;BME280;22233;42.708;23.360;2023-02-28T14:42:58;95875.94;;;12.33;65.55
36192;BME280;22233;42.708;23.360;2023-02-28T14:45:28;95877.34;;;12.22;66.56
36192;BME280;22233;42.708;23.360;2023-02-28T14:47:54;95879.69;;;12.37;65.63
36192;BME280;22233;42.708;23.360;2023-02-28T14:50:25;95879.31;;;12.30;65.94
36192;BME280;22233;42.708;23.360;2023-02-28T14:52:55;95877.16;;;12.18;66.05
36192;BME280;22233;42.708;23.360;2023-02-28T14:55:32;95886.06;;;12.10;66.28
36192;BME280;22233;42.708;23.360;2023-02-28T14:58:04;95876.34;;;11.73;67.99
36192;BME280;22233;42.708;23.360;2023-02-28T15:00:36;95885.47;;;11.91;68.34
36192;BME280;22233;42.708;23.360;2023-02-28T15:03:22;95883.41;;;12.19;66.90
36192;BME280;22233;42.708;23.360;2023-02-28T15:05:57;95876.50;;;11.90;68.27
36192;BME280;22233;42.708;23.360;2023-02-28T15:08:22;95887.38;;;12.13;67.19
36192;BME280;22233;42.708;23.360;2023-02-28T15:13:50;95886.88;;;11.88;67.99
36192;BME280;22233;42.708;23.360;2023-02-28T15:18:57;95875.28;;;11.60;68.05
36192;BME280;22233;42.708;23.360;2023-02-28T15:21:27;95868.75;;;11.61;68.21
36192;BME280;22233;42.708;23.360;2023-02-28T15:26:30;95877.25;;;11.46;69.26
36192;BME280;22233;42.708;23.360;2023-02-28T15:29:03;95884.38;;;11.55;69.41
36192;BME280;22233;42.708;23.360;2023-02-28T15:31:34;95901.31;;;11.52;69.28
36192;BME280;22233;42.708;23.360;2023-02-28T15:34:05;95901.41;;;11.61;68.73
36192;BME280;22233;42.708;23.360;2023-02-28T15:36:33;95918.31;;;11.58;69.38
36192;BME280;22233;42.708;23.360;2023-02-28T15:39:01;95898.13;;;11.23;70.26
36192;BME280;22233;42.708;23.360;2023-02-28T15:41:29;95908.69;;;11.38;70.10
36192;BME280;22233;42.708;23.360;2023-02-28T15:47:38;95909.56;;;11.11;70.45
36192;BME280;22233;42.708;23.360;2023-02-28T15:52:20;95897.91;;;10.83;71.26
36192;BME280;22233;42.708;23.360;2023-02-28T15:54:46;95902.19;;;11.11;70.93